Time;durP1;ratioP1;P1;durP2;ratioP2;P2;SDS_P1;SDS_P2;PMS_P1;PMS_P2;Temp;Humidity;BMP_temperature;BMP_pressure;BME280_temperature;BME280_humidity;BME280_pressure;Samples;Min_cycle;Max_cycle;Signal;HPM_P1;HPM_P2
2023/07/13 00:01:43;;;;;;;3.30;1.93;;;21.10;99.90;;;;;;4989344;28;20521;-70
2023/07/13 00:04:09;;;;;;;2.40;1.70;;;21.10;99.90;;;;;;4991212;28;20554;-70
2023/07/13 00:06:35;;;;;;;2.43;1.70;;;21.10;99.90;;;;;;4999692;28;20196;-70
2023/07/13 00:09:01;;;;;;;3.47;2.10;;;21.00;99.90;;;;;;4999874;28;20215;-70
2023/07/13 00:11:27;;;;;;;3.00;2.60;;;20.90;99.90;;;;;;5002969;28;20449;-70
2023/07/13 00:13:53;;;;;;;3.33;1.90;;;20.80;99.90;;;;;;4998515;28;20830;-70
2023/07/13 00:16:18;;;;;;;2.40;2.20;;;20.80;99.90;;;;;;4992902;28;20439;-70
2023/07/13 00:18:44;;;;;;;2.37;2.17;;;20.70;99.90;;;;;;4994060;28;20294;-70
2023/07/13 00:21:10;;;;;;;2.57;1.73;;;20.70;99.90;;;;;;4991403;28;20270;-70
2023/07/13 00:23:39;;;;;;;2.83;2.63;;;20.70;99.90;;;;;;4992246;28;20438;-70
2023/07/13 00:26:08;;;;;;;3.17;1.87;;;20.60;99.90;;;;;;4985520;28;20429;-70
2023/07/13 00:28:34;;;;;;;3.33;2.03;;;20.70;99.90;;;;;;5002263;28;20438;-70
2023/07/13 00:31:00;;;;;;;2.53;2.10;;;20.40;99.90;;;;;;5002941;28;20830;-70
2023/07/13 00:33:27;;;;;;;4.67;2.30;;;20.30;99.90;;;;;;4994367;28;20430;-70
2023/07/13 00:35:54;;;;;;;3.93;2.27;;;20.20;99.90;;;;;;5001310;28;20429;-70
2023/07/13 00:38:20;;;;;;;7.10;2.13;;;20.20;99.90;;;;;;4999058;28;20493;-70
2023/07/13 00:40:46;;;;;;;3.80;2.43;;;20.10;99.90;;;;;;5002529;28;20489;-70
2023/07/13 00:43:18;;;;;;;1.70;1.60;;;20.00;99.90;;;;;;4999654;28;20270;-70
2023/07/13 00:45:43;;;;;;;4.83;2.50;;;19.90;99.90;;;;;;5003467;28;20185;-70
2023/07/13 00:48:11;;;;;;;2.77;2.57;;;19.90;99.90;;;;;;4999847;28;20447;-70
2023/07/13 00:50:37;;;;;;;1.80;1.70;;;19.80;99.90;;;;;;4993129;28;20206;-70
2023/07/13 00:53:03;;;;;;;2.80;2.00;;;19.80;99.90;;;;;;4995587;28;20523;-70
2023/07/13 00:55:29;;;;;;;2.63;2.40;;;19.70;99.90;;;;;;5003209;28;20429;-69
2023/07/13 00:57:55;;;;;;;2.00;1.80;;;19.70;99.90;;;;;;5005827;28;20215;-70
2023/07/13 01:00:22;;;;;;;3.00;2.07;;;19.70;99.90;;;;;;4999325;28;20192;-70
2023/07/13 01:02:49;;;;;;;2.13;1.80;;;19.70;99.90;;;;;;4993631;28;20497;-70
2023/07/13 01:05:19;;;;;;;3.33;2.37;;;19.60;99.90;;;;;;4991481;28;20434;-70
2023/07/13 01:07:45;;;;;;;5.77;2.67;;;19.60;99.90;;;;;;4993756;28;20489;-70
2023/07/13 01:10:12;;;;;;;4.10;2.00;;;19.60;99.90;;;;;;5003992;28;20485;-70
2023/07/13 01:12:38;;;;;;;4.00;2.00;;;19.70;99.90;;;;;;5005540;28;20512;-70
2023/07/13 01:15:05;;;;;;;2.83;2.00;;;19.70;99.90;;;;;;4993567;28;20570;-70
2023/07/13 01:17:33;;;;;;;6.20;1.93;;;19.70;99.90;;;;;;4999080;28;20673;-70
2023/07/13 01:19:59;;;;;;;2.50;2.17;;;19.70;99.90;;;;;;4996446;28;20458;-70
2023/07/13 01:22:26;;;;;;;2.97;2.00;;;19.80;99.90;;;;;;4992435;28;20439;-70
2023/07/13 01:24:53;;;;;;;2.93;2.23;;;19.70;99.90;;;;;;4993322;28;20776;-70
2023/07/13 01:27:25;;;;;;;2.70;2.00;;;19.70;99.90;;;;;;4999077;28;20442;-70
2023/07/13 01:29:52;;;;;;;2.87;1.80;;;19.70;99.90;;;;;;5005074;28;20449;-70
2023/07/13 01:32:22;;;;;;;2.80;1.63;;;19.60;99.90;;;;;;5002282;28;20920;-70
2023/07/13 01:34:48;;;;;;;3.97;1.90;;;19.60;99.90;;;;;;4999724;28;21374;-70
2023/07/13 01:37:14;;;;;;;1.93;1.73;;;19.40;99.90;;;;;;4996231;28;20519;-70
2023/07/13 01:39:39;;;;;;;2.83;2.03;;;19.30;99.90;;;;;;5004678;28;20822;-70
2023/07/13 01:42:05;;;;;;;3.27;2.07;;;19.20;99.90;;;;;;4994831;28;20184;-70
2023/07/13 01:44:30;;;;;;;2.63;2.30;;;19.20;99.90;;;;;;4991100;28;20594;-70
2023/07/13 01:46:56;;;;;;;3.57;3.27;;;19.20;99.90;;;;;;4998223;28;20190;-70
2023/07/13 01:49:21;;;;;;;6.90;2.70;;;19.10;99.90;;;;;;5004083;28;20205;-70
2023/07/13 01:51:47;;;;;;;4.17;2.50;;;19.10;99.90;;;;;;4990821;28;20200;-70
2023/07/13 01:54:12;;;;;;;5.00;2.40;;;19.10;99.90;;;;;;4995841;28;20277;-70
2023/07/13 01:56:39;;;;;;;3.27;1.83;;;19.10;99.90;;;;;;4992368;28;20187;-70
2023/07/13 01:59:05;;;;;;;2.37;2.13;;;19.10;99.90;;;;;;4996791;28;20203;-70
2023/07/13 02:01:30;;;;;;;6.83;3.17;;;19.10;99.90;;;;;;4992147;28;20473;-70
2023/07/13 02:03:56;;;;;;;3.13;2.60;;;19.00;99.90;;;;;;4995527;28;20274;-70
2023/07/13 02:06:21;;;;;;;2.33;2.17;;;18.90;99.90;;;;;;4998435;28;20179;-70
2023/07/13 02:08:47;;;;;;;3.33;2.50;;;18.90;99.90;;;;;;5000397;28;20190;-70
2023/07/13 02:11:12;;;;;;;3.73;2.03;;;18.90;99.90;;;;;;5004180;28;20211;-71
2023/07/13 02:13:38;;;;;;;3.50;2.07;;;18.70;99.90;;;;;;5001777;28;20186;-71
2023/07/13 02:16:04;;;;;;;3.33;2.63;;;18.70;99.90;;;;;;5001208;28;20215;-71
2023/07/13 02:18:29;;;;;;;4.50;2.10;;;18.70;99.90;;;;;;4991141;28;20239;-71
2023/07/13 02:20:55;;;;;;;3.73;2.50;;;18.70;99.90;;;;;;4992775;28;20233;-71
2023/07/13 02:23:20;;;;;;;6.17;2.53;;;18.60;99.90;;;;;;4996268;28;20221;-71
2023/07/13 02:25:46;;;;;;;3.20;2.43;;;18.50;99.90;;;;;;4995698;28;20227;-71
2023/07/13 02:28:11;;;;;;;4.43;2.40;;;18.50;99.90;;;;;;5001999;28;20202;-71
2023/07/13 02:30:38;;;;;;;2.97;2.23;;;18.50;99.90;;;;;;5000389;28;20597;-71
2023/07/13 02:33:04;;;;;;;2.70;2.50;;;18.40;99.90;;;;;;4993477;28;20263;-71
2023/07/13 02:35:29;;;;;;;2.67;2.40;;;18.30;99.90;;;;;;4997083;28;20465;-71
2023/07/13 02:37:55;;;;;;;4.03;2.37;;;18.30;99.90;;;;;;5003690;28;20908;-71
2023/07/13 02:40:20;;;;;;;2.23;2.03;;;18.30;99.90;;;;;;4999910;28;20211;-71
2023/07/13 02:42:46;;;;;;;2.90;2.40;;;18.30;99.90;;;;;;5000316;28;20183;-71
2023/07/13 02:45:13;;;;;;;2.93;1.80;;;18.20;99.90;;;;;;4994298;28;20192;-71
2023/07/13 02:47:41;;;;;;;2.07;1.97;;;18.10;99.90;;;;;;4989367;28;20215;-71
2023/07/13 02:50:07;;;;;;;3.70;1.93;;;18.10;99.90;;;;;;4990798;28;20463;-71
2023/07/13 02:52:33;;;;;;;6.67;2.30;;;18.10;99.90;;;;;;4995614;28;20447;-71
2023/07/13 02:54:58;;;;;;;2.90;2.60;;;18.10;99.90;;;;;;5000854;28;20443;-70
2023/07/13 02:57:24;;;;;;;2.47;2.00;;;18.00;99.90;;;;;;4981377;28;20599;-71
2023/07/13 02:59:49;;;;;;;4.73;2.30;;;18.00;99.90;;;;;;4991296;28;20207;-71
2023/07/13 03:02:15;;;;;;;4.20;2.03;;;18.00;99.90;;;;;;4992112;28;20649;-71
2023/07/13 03:04:41;;;;;;;2.90;2.07;;;18.00;99.90;;;;;;4990361;28;20242;-71
2023/07/13 03:07:07;;;;;;;3.73;2.50;;;18.00;99.90;;;;;;4987300;28;20190;-71
2023/07/13 03:09:33;;;;;;;3.67;2.33;;;18.00;99.90;;;;;;4994348;28;20226;-71
2023/07/13 03:12:00;;;;;;;4.73;2.40;;;18.00;99.90;;;;;;5001163;28;20476;-71
2023/07/13 03:14:27;;;;;;;9.13;2.50;;;18.00;99.90;;;;;;4996947;28;20527;-71
2023/07/13 03:16:52;;;;;;;6.20;2.20;;;18.00;99.90;;;;;;4999812;28;20441;-71
2023/07/13 03:19:18;;;;;;;11.30;2.40;;;18.00;99.90;;;;;;4994224;28;20553;-71
2023/07/13 03:21:44;;;;;;;2.80;2.33;;;18.10;99.90;;;;;;4987168;28;20634;-71
2023/07/13 03:24:09;;;;;;;6.40;3.73;;;18.20;99.90;;;;;;5002172;28;20442;-71
2023/07/13 03:26:35;;;;;;;3.53;2.40;;;18.30;99.90;;;;;;5003138;28;20183;-71
2023/07/13 03:29:01;;;;;;;5.43;2.90;;;18.30;99.90;;;;;;4994487;28;20202;-71
2023/07/13 03:31:29;;;;;;;3.20;2.87;;;18.30;99.90;;;;;;5003410;28;20187;-71
2023/07/13 03:33:56;;;;;;;4.27;2.63;;;18.30;99.90;;;;;;4997968;28;20192;-71
2023/07/13 03:36:24;;;;;;;2.87;2.30;;;18.30;99.90;;;;;;4994048;28;20943;-71
2023/07/13 03:38:53;;;;;;;3.53;3.10;;;18.20;99.90;;;;;;4999091;28;20462;-71
2023/07/13 03:41:20;;;;;;;3.03;2.83;;;18.30;99.90;;;;;;4997759;28;20576;-71
2023/07/13 03:43:47;;;;;;;2.57;2.33;;;18.20;99.90;;;;;;4991724;28;20431;-71
2023/07/13 03:46:13;;;;;;;2.40;2.30;;;18.30;99.90;;;;;;5001546;28;20530;-71
2023/07/13 03:48:40;;;;;;;6.20;2.60;;;18.20;99.90;;;;;;5002615;28;20930;-71
2023/07/13 03:51:06;;;;;;;6.80;3.00;;;18.20;99.90;;;;;;4991920;28;20183;-71
2023/07/13 03:53:31;;;;;;;4.50;2.60;;;18.30;99.90;;;;;;4995309;28;20446;-72
2023/07/13 03:55:57;;;;;;;2.90;2.70;;;18.40;99.90;;;;;;5003813;28;20245;-70
2023/07/13 03:58:37;;;;;;;3.07;2.30;;;18.40;99.90;;;;;;5002153;28;20648;-70
2023/07/13 04:01:05;;;;;;;3.30;3.00;;;18.50;99.90;;;;;;5002090;28;20669;-70
2023/07/13 04:03:32;;;;;;;7.07;2.80;;;18.60;99.90;;;;;;5007010;28;20508;-70
2023/07/13 04:06:00;;;;;;;5.93;2.70;;;18.30;99.90;;;;;;5000010;28;20535;-70
2023/07/13 04:08:29;;;;;;;5.27;3.30;;;18.30;99.90;;;;;;4991768;28;20568;-70
2023/07/13 04:10:55;;;;;;;3.03;2.70;;;18.30;99.90;;;;;;4992828;28;20488;-70
2023/07/13 04:13:21;;;;;;;3.30;3.03;;;18.30;99.90;;;;;;4995758;28;20448;-70
2023/07/13 04:15:47;;;;;;;4.80;2.40;;;18.30;99.90;;;;;;5005688;28;20437;-70
2023/07/13 04:18:12;;;;;;;5.80;2.97;;;18.40;99.90;;;;;;5003634;28;20210;-70
2023/07/13 04:20:38;;;;;;;2.80;2.53;;;18.40;99.90;;;;;;5003173;28;20247;-70
2023/07/13 04:23:03;;;;;;;3.23;2.70;;;18.50;99.90;;;;;;5002458;28;20661;-70
2023/07/13 04:25:29;;;;;;;2.87;2.67;;;18.50;99.90;;;;;;4995048;28;20654;-70
2023/07/13 04:27:54;;;;;;;3.43;2.40;;;18.40;99.90;;;;;;4997134;28;20522;-70
2023/07/13 04:30:20;;;;;;;3.90;3.10;;;18.50;99.90;;;;;;4993728;28;20239;-70
2023/07/13 04:32:46;;;;;;;2.53;2.20;;;18.50;99.90;;;;;;4992651;28;20188;-70
2023/07/13 04:35:13;;;;;;;10.93;2.50;;;18.50;99.90;;;;;;4996193;28;20570;-70
2023/07/13 04:37:39;;;;;;;3.70;2.20;;;18.60;99.90;;;;;;4993552;28;20234;-70
2023/07/13 04:40:05;;;;;;;2.80;2.20;;;18.60;99.90;;;;;;5002419;28;20457;-70
2023/07/13 04:42:31;;;;;;;2.70;2.50;;;18.60;99.90;;;;;;4997971;28;20184;-70
2023/07/13 04:44:57;;;;;;;2.43;1.90;;;18.70;99.90;;;;;;4994736;28;20442;-71
2023/07/13 04:47:22;;;;;;;2.43;2.23;;;18.80;99.90;;;;;;5001188;28;20237;-71
2023/07/13 04:49:48;;;;;;;3.10;2.80;;;18.90;99.90;;;;;;4991847;28;20195;-71
2023/07/13 04:52:13;;;;;;;4.63;2.33;;;18.90;99.90;;;;;;4996252;28;20183;-71
2023/07/13 04:54:39;;;;;;;4.60;2.40;;;18.90;99.90;;;;;;5005901;28;20215;-71
2023/07/13 04:57:06;;;;;;;2.50;2.30;;;18.80;99.90;;;;;;4998382;28;20627;-71
2023/07/13 04:59:32;;;;;;;4.17;2.90;;;18.80;99.90;;;;;;4990258;28;20753;-71
2023/07/13 05:01:58;;;;;;;4.63;2.77;;;18.70;99.90;;;;;;4993953;28;20528;-71
2023/07/13 05:04:24;;;;;;;2.73;2.53;;;18.70;99.90;;;;;;4998078;28;20487;-71
2023/07/13 05:06:49;;;;;;;3.50;2.40;;;18.70;99.90;;;;;;4995700;28;20708;-71
2023/07/13 05:09:15;;;;;;;2.63;2.43;;;18.70;99.90;;;;;;4995291;28;20227;-71
2023/07/13 05:11:40;;;;;;;5.10;2.93;;;18.80;99.90;;;;;;4993362;28;20191;-71
2023/07/13 05:14:06;;;;;;;3.70;3.00;;;19.00;99.90;;;;;;5003045;28;20187;-71
2023/07/13 05:16:32;;;;;;;5.63;3.40;;;19.10;99.90;;;;;;4994639;28;20176;-71
2023/07/13 05:18:58;;;;;;;3.23;2.60;;;19.30;99.90;;;;;;4992414;28;20207;-71
2023/07/13 05:21:23;;;;;;;2.93;2.70;;;19.50;99.90;;;;;;5000670;28;20490;-71
2023/07/13 05:23:49;;;;;;;3.90;2.70;;;19.50;99.90;;;;;;5001998;28;20647;-71
2023/07/13 05:26:14;;;;;;;4.13;3.80;;;19.70;99.90;;;;;;5004343;28;20226;-71
2023/07/13 05:28:40;;;;;;;3.57;3.27;;;20.00;99.90;;;;;;4996530;28;20191;-71
2023/07/13 05:31:08;;;;;;;4.03;3.50;;;20.10;99.90;;;;;;4991985;28;20183;-71
2023/07/13 05:33:34;;;;;;;3.50;3.10;;;19.90;99.90;;;;;;4983473;28;20753;-71
2023/07/13 05:36:00;;;;;;;5.07;4.20;;;19.90;99.90;;;;;;4994055;28;20525;-71
2023/07/13 05:38:26;;;;;;;6.17;3.77;;;20.00;99.90;;;;;;5000674;28;20207;-71
2023/07/13 05:40:53;;;;;;;4.13;2.93;;;20.10;99.90;;;;;;4992550;28;20464;-71
2023/07/13 05:43:19;;;;;;;3.43;3.13;;;20.10;99.90;;;;;;4998520;28;21005;-74
2023/07/13 05:45:45;;;;;;;3.43;3.13;;;20.00;99.90;;;;;;5001710;28;20437;-71
2023/07/13 05:48:10;;;;;;;2.90;2.70;;;20.10;99.90;;;;;;4990906;28;20183;-72
2023/07/13 05:50:36;;;;;;;3.30;2.70;;;20.10;99.90;;;;;;4991373;28;20282;-72
2023/07/13 05:53:02;;;;;;;6.20;2.10;;;20.20;99.90;;;;;;4989686;28;20191;-73
2023/07/13 05:55:27;;;;;;;4.23;2.07;;;20.30;99.90;;;;;;4990795;28;20183;-73
2023/07/13 05:57:53;;;;;;;3.57;2.20;;;20.30;99.90;;;;;;4992201;28;20230;-73
2023/07/13 06:00:18;;;;;;;3.63;2.43;;;20.30;99.90;;;;;;5003689;28;20218;-73
2023/07/13 06:02:44;;;;;;;2.60;2.40;;;20.20;99.90;;;;;;5005160;28;20566;-73
2023/07/13 06:05:09;;;;;;;2.77;2.50;;;20.10;99.90;;;;;;4991875;28;20257;-73
2023/07/13 06:07:35;;;;;;;3.30;2.50;;;20.10;99.90;;;;;;4992679;28;20528;-74
2023/07/13 06:10:00;;;;;;;3.13;2.30;;;20.10;99.90;;;;;;4990443;28;20223;-74
2023/07/13 06:12:27;;;;;;;10.33;4.03;;;20.20;99.90;;;;;;4991166;28;20172;-74
2023/07/13 06:14:52;;;;;;;2.17;2.07;;;20.50;99.90;;;;;;4988733;28;20266;-70
2023/07/13 06:17:17;;;;;;;3.73;2.20;;;20.80;99.90;;;;;;4989968;28;20924;-70
2023/07/13 06:19:44;;;;;;;5.23;2.70;;;21.00;99.90;;;;;;4993154;28;20210;-69
2023/07/13 06:22:09;;;;;;;3.53;2.37;;;21.20;99.90;;;;;;4992562;28;20206;-69
2023/07/13 06:24:35;;;;;;;3.20;2.60;;;21.50;99.90;;;;;;4993529;28;20419;-69
2023/07/13 06:27:01;;;;;;;2.40;2.30;;;21.60;99.60;;;;;;4992950;28;20768;-70
2023/07/13 06:29:26;;;;;;;2.90;2.53;;;21.60;99.90;;;;;;4990586;28;20617;-69
2023/07/13 06:31:52;;;;;;;4.60;3.13;;;22.00;98.70;;;;;;4992611;28;20242;-69
2023/07/13 06:34:17;;;;;;;4.83;2.73;;;22.30;97.50;;;;;;4987016;28;20176;-69
2023/07/13 06:36:44;;;;;;;3.37;2.50;;;22.80;95.50;;;;;;4991777;28;20564;-69
2023/07/13 06:39:09;;;;;;;3.00;2.27;;;23.10;94.90;;;;;;4992874;28;20639;-69
2023/07/13 06:41:35;;;;;;;2.43;2.20;;;23.40;92.70;;;;;;4994712;28;20521;-69
2023/07/13 06:44:00;;;;;;;2.40;2.20;;;23.80;94.00;;;;;;4995393;28;20179;-68
2023/07/13 06:46:28;;;;;;;3.13;2.23;;;24.30;90.20;;;;;;4993027;28;20176;-69
2023/07/13 06:48:54;;;;;;;3.67;2.00;;;24.40;85.70;;;;;;4992778;28;20266;-69
2023/07/13 06:51:19;;;;;;;3.33;2.43;;;24.70;86.30;;;;;;4992952;28;20517;-69
2023/07/13 06:53:45;;;;;;;4.50;2.57;;;24.50;82.60;;;;;;4996867;28;20258;-68
2023/07/13 06:56:11;;;;;;;2.27;2.07;;;24.70;80.90;;;;;;4992710;28;20539;-69
2023/07/13 06:58:36;;;;;;;3.60;2.37;;;24.60;82.10;;;;;;4992078;28;20550;-69
2023/07/13 07:01:03;;;;;;;2.10;2.00;;;24.50;81.80;;;;;;4993065;28;20434;-68
2023/07/13 07:03:28;;;;;;;3.97;1.97;;;24.60;79.90;;;;;;4992545;28;20176;-68
2023/07/13 07:05:54;;;;;;;2.20;1.97;;;24.30;79.10;;;;;;4992913;28;20779;-68
2023/07/13 07:08:19;;;;;;;3.07;2.30;;;24.50;76.90;;;;;;4991458;28;20180;-69
2023/07/13 07:10:45;;;;;;;3.90;2.17;;;24.30;76.80;;;;;;4992479;28;20684;-68
2023/07/13 07:13:11;;;;;;;2.00;1.73;;;24.20;77.00;;;;;;4975109;28;20616;-68
2023/07/13 07:15:36;;;;;;;2.50;1.83;;;24.50;75.40;;;;;;4992775;28;20171;-69
2023/07/13 07:18:02;;;;;;;2.87;2.00;;;24.50;74.90;;;;;;4992628;28;20248;-68
2023/07/13 07:20:28;;;;;;;5.73;1.97;;;24.40;74.80;;;;;;4991967;28;20684;-69
2023/07/13 07:22:53;;;;;;;5.50;2.17;;;24.40;75.40;;;;;;4995488;28;20607;-68
2023/07/13 07:25:19;;;;;;;4.27;2.00;;;24.20;76.00;;;;;;4992487;28;20175;-68
2023/07/13 07:27:45;;;;;;;5.40;1.70;;;24.30;75.00;;;;;;4992523;28;20637;-69
2023/07/13 07:30:11;;;;;;;3.80;2.47;;;24.50;73.60;;;;;;4992077;28;20438;-69
2023/07/13 07:32:37;;;;;;;3.47;2.03;;;24.50;72.80;;;;;;4991314;28;20431;-69
2023/07/13 07:35:02;;;;;;;3.73;1.57;;;24.70;73.20;;;;;;4991641;28;20426;-69
2023/07/13 07:37:28;;;;;;;2.77;1.50;;;25.10;72.20;;;;;;4991199;28;20179;-69
2023/07/13 07:39:53;;;;;;;4.67;1.80;;;25.30;69.10;;;;;;4991948;28;20195;-69
2023/07/13 07:42:19;;;;;;;2.80;1.83;;;25.40;66.90;;;;;;4992189;28;20656;-69
2023/07/13 07:44:44;;;;;;;4.10;1.67;;;25.70;65.60;;;;;;4992372;28;20168;-69
2023/07/13 07:47:10;;;;;;;2.20;1.67;;;26.10;64.70;;;;;;4992474;28;20176;-69
2023/07/13 07:49:36;;;;;;;2.50;1.80;;;26.30;61.00;;;;;;4992035;28;20195;-69
2023/07/13 07:52:02;;;;;;;3.23;2.30;;;26.10;61.60;;;;;;4991613;28;20182;-69
2023/07/13 07:54:27;;;;;;;2.53;1.50;;;26.10;61.70;;;;;;4991947;28;20434;-69
2023/07/13 07:56:53;;;;;;;2.43;1.90;;;26.20;61.60;;;;;;4992112;28;20303;-68
2023/07/13 07:59:19;;;;;;;2.90;1.80;;;26.30;60.80;;;;;;4991860;28;20214;-68
2023/07/13 08:01:46;;;;;;;5.67;2.17;;;26.40;59.20;;;;;;4992289;28;20660;-69
2023/07/13 08:04:12;;;;;;;3.80;1.90;;;26.20;58.30;;;;;;4991585;28;20998;-69
2023/07/13 08:06:37;;;;;;;3.37;1.63;;;26.40;59.20;;;;;;4997874;28;20426;-69
2023/07/13 08:11:29;;;;;;;2.23;2.13;;;26.90;61.00;;;;;;5035428;23;20273;-69
2023/07/13 08:13:54;;;;;;;6.40;2.63;;;27.00;58.40;;;;;;5008091;28;20454;-70
2023/07/13 08:16:20;;;;;;;2.90;2.17;;;27.20;58.20;;;;;;5012697;28;20171;-70
2023/07/13 08:18:45;;;;;;;3.30;2.00;;;27.20;58.00;;;;;;5003776;28;20212;-70
2023/07/13 08:21:11;;;;;;;2.10;1.90;;;26.90;56.00;;;;;;4984512;28;20194;-70
2023/07/13 08:23:36;;;;;;;4.47;2.23;;;27.10;56.90;;;;;;4983680;28;20720;-69
2023/07/13 08:26:04;;;;;;;2.53;2.10;;;27.10;56.30;;;;;;4972439;28;20227;-70
2023/07/13 08:28:30;;;;;;;2.07;1.87;;;27.10;56.40;;;;;;4972291;28;20271;-69
2023/07/13 08:31:00;;;;;;;1.90;1.80;;;27.50;56.30;;;;;;4972517;28;20458;-69
2023/07/13 08:33:26;;;;;;;2.60;1.63;;;27.90;55.10;;;;;;4982397;28;20454;-69
2023/07/13 08:35:51;;;;;;;5.00;2.30;;;28.10;54.80;;;;;;4999461;28;20923;-69
2023/07/13 08:38:18;;;;;;;6.13;2.23;;;28.10;53.80;;;;;;4994979;28;20195;-69
2023/07/13 08:40:44;;;;;;;5.90;2.20;;;28.60;54.10;;;;;;4995535;28;20206;-69
2023/07/13 08:43:17;;;;;;;3.10;2.40;;;28.90;53.20;;;;;;4983438;28;20565;-69
2023/07/13 08:45:50;;;;;;;2.77;2.57;;;28.60;52.40;;;;;;4975952;28;20417;-69
2023/07/13 08:48:25;;;;;;;5.13;2.27;;;28.60;52.50;;;;;;4975988;28;20423;-69
2023/07/13 08:51:04;;;;;;;4.43;1.83;;;28.20;52.60;;;;;;5001123;28;20982;-69
2023/07/13 08:53:39;;;;;;;1.87;1.77;;;28.10;52.70;;;;;;4995197;28;20469;-69
2023/07/13 08:56:11;;;;;;;1.70;1.60;;;28.10;52.70;;;;;;4995172;28;20477;-69
2023/07/13 08:58:38;;;;;;;7.83;2.20;;;28.50;52.70;;;;;;4975385;28;20455;-69
2023/07/13 09:01:28;;;;;;;1.70;1.60;;;28.70;51.90;;;;;;4983765;28;20454;-69
2023/07/13 09:04:03;;;;;;;2.50;2.30;;;29.40;50.90;;;;;;4982991;28;20434;-69
2023/07/13 09:06:49;;;;;;;3.63;1.80;;;29.90;50.30;;;;;;4981648;28;20442;-69
2023/07/13 09:09:41;;;;;;;3.13;1.80;;;30.30;49.10;;;;;;4979548;28;20510;-69
2023/07/13 09:12:21;;;;;;;3.20;1.93;;;30.00;48.80;;;;;;4984382;28;20435;-68
2023/07/13 09:14:53;;;;;;;3.40;2.20;;;29.80;48.30;;;;;;4982221;28;20945;-68
2023/07/13 09:17:24;;;;;;;2.63;1.80;;;30.00;48.60;;;;;;4988765;28;20513;-70
2023/07/13 09:20:17;;;;;;;2.97;2.20;;;29.80;48.80;;;;;;4994306;28;20838;-70
2023/07/13 09:22:42;;;;;;;6.60;2.57;;;29.70;48.60;;;;;;4999784;28;20444;-70
2023/07/13 09:25:21;;;;;;;4.17;1.83;;;30.10;49.10;;;;;;5006032;28;20430;-68
2023/07/13 09:27:47;;;;;;;5.20;2.50;;;30.20;48.10;;;;;;5003798;28;20172;-66
2023/07/13 09:30:13;;;;;;;2.20;1.93;;;29.40;47.00;;;;;;4974396;28;20455;-66
2023/07/13 09:32:43;;;;;;;6.30;2.07;;;29.30;48.00;;;;;;4974711;28;20792;-66
2023/07/13 09:35:14;;;;;;;5.60;2.13;;;29.30;47.70;;;;;;4974777;28;20252;-67
2023/07/13 09:37:43;;;;;;;4.40;1.93;;;29.60;48.60;;;;;;4989670;28;20430;-66
2023/07/13 09:40:48;;;;;;;4.00;2.00;;;29.80;48.00;;;;;;4985568;28;20449;-66
2023/07/13 09:43:15;;;;;;;3.47;2.20;;;30.70;46.90;;;;;;4951548;28;21043;-67
2023/07/13 09:45:44;;;;;;;3.30;2.60;;;30.80;45.90;;;;;;4985440;28;20441;-66
2023/07/13 09:48:15;;;;;;;2.20;1.70;;;30.00;46.50;;;;;;4993651;28;20581;-67
2023/07/13 09:50:42;;;;;;;6.80;3.90;;;30.00;46.90;;;;;;4993769;28;20449;-66
2023/07/13 09:53:13;;;;;;;3.40;2.17;;;30.50;45.40;;;;;;4993462;28;20504;-66
2023/07/13 09:55:41;;;;;;;4.80;2.03;;;30.50;45.70;;;;;;5006250;28;20438;-65
2023/07/13 09:58:23;;;;;;;6.50;2.40;;;30.80;45.90;;;;;;4995661;28;20461;-65
2023/07/13 10:01:05;;;;;;;4.93;2.43;;;31.60;45.50;;;;;;4979385;28;20454;-65
2023/07/13 10:03:37;;;;;;;2.10;1.80;;;31.60;44.60;;;;;;4974301;28;20423;-65
2023/07/13 10:06:15;;;;;;;2.40;1.90;;;31.20;44.50;;;;;;4975500;28;20431;-66
2023/07/13 10:08:41;;;;;;;2.23;2.03;;;30.80;44.60;;;;;;4974055;28;20853;-66
2023/07/13 10:11:11;;;;;;;3.80;1.73;;;30.40;44.60;;;;;;4986693;28;20479;-66
2023/07/13 10:13:42;;;;;;;2.60;2.40;;;30.90;44.30;;;;;;4992016;28;20235;-66
2023/07/13 10:16:09;;;;;;;1.90;1.80;;;31.50;43.40;;;;;;4993728;28;20422;-66
2023/07/13 10:19:00;;;;;;;5.60;2.10;;;32.40;43.10;;;;;;4994378;28;20462;-66
2023/07/13 10:21:32;;;;;;;2.53;2.13;;;33.20;42.40;;;;;;4993907;28;20446;-66
2023/07/13 10:24:05;;;;;;;1.70;1.60;;;32.80;41.40;;;;;;4993034;28;20411;-66
2023/07/13 10:26:34;;;;;;;5.43;2.10;;;32.20;42.00;;;;;;4997080;28;20513;-66
2023/07/13 10:29:06;;;;;;;2.00;1.87;;;32.20;42.20;;;;;;5001032;28;20536;-66
2023/07/13 10:31:34;;;;;;;3.00;2.20;;;32.00;41.40;;;;;;5012438;28;20782;-66
2023/07/13 10:34:00;;;;;;;3.50;2.20;;;31.80;41.90;;;;;;5012885;28;20425;-66
2023/07/13 10:36:42;;;;;;;5.00;1.70;;;31.80;42.20;;;;;;5011418;28;20424;-65
2023/07/13 10:39:22;;;;;;;7.77;2.03;;;31.60;42.60;;;;;;5012459;28;20302;-66
2023/07/13 10:41:54;;;;;;;3.00;2.10;;;31.30;42.70;;;;;;5005303;28;20437;-66
2023/07/13 10:44:26;;;;;;;3.37;2.67;;;30.80;42.40;;;;;;4992671;28;20431;-66
2023/07/13 10:46:54;;;;;;;2.90;2.07;;;31.30;42.50;;;;;;4973381;28;20423;-65
2023/07/13 10:49:21;;;;;;;2.40;1.97;;;30.60;42.80;;;;;;4989943;28;20454;-65
2023/07/13 10:51:47;;;;;;;4.13;2.40;;;30.30;42.50;;;;;;4988880;28;20439;-65
2023/07/13 10:54:25;;;;;;;3.13;1.97;;;30.70;42.60;;;;;;4980572;28;20493;-66
2023/07/13 10:57:08;;;;;;;2.17;1.83;;;30.90;42.40;;;;;;4990333;28;20184;-66
2023/07/13 10:59:34;;;;;;;3.03;2.10;;;31.20;42.50;;;;;;4993864;28;20553;-66
2023/07/13 11:02:15;;;;;;;2.50;2.13;;;32.00;41.20;;;;;;5009182;28;20508;-66
2023/07/13 11:04:45;;;;;;;2.77;2.43;;;33.10;39.90;;;;;;4996736;28;20163;-66
2023/07/13 11:07:24;;;;;;;2.60;2.03;;;34.70;37.30;;;;;;4992641;28;20425;-65
2023/07/13 11:09:53;;;;;;;2.97;1.97;;;34.60;36.80;;;;;;4992185;28;20469;-66
2023/07/13 11:12:25;;;;;;;2.10;1.80;;;35.70;36.50;;;;;;4992666;28;20790;-66
2023/07/13 11:15:02;;;;;;;3.47;2.13;;;35.90;35.20;;;;;;4993422;28;20441;-66
2023/07/13 11:17:47;;;;;;;1.93;1.83;;;36.20;34.10;;;;;;4993343;28;20421;-66
2023/07/13 11:20:12;;;;;;;2.00;1.70;;;35.60;33.10;;;;;;4992229;28;20458;-66
2023/07/13 11:22:47;;;;;;;3.53;2.07;;;35.50;33.50;;;;;;4992475;28;20407;-65
2023/07/13 11:25:34;;;;;;;4.43;1.50;;;35.60;33.60;;;;;;4992486;28;20186;-66
2023/07/13 11:28:11;;;;;;;2.43;2.23;;;34.80;33.60;;;;;;4992305;28;20928;-66
2023/07/13 11:30:59;;;;;;;5.53;2.67;;;35.70;33.60;;;;;;4997469;28;20457;-66
2023/07/13 11:33:24;;;;;;;2.03;1.93;;;36.30;34.00;;;;;;4992515;28;20415;-66
2023/07/13 11:36:10;;;;;;;2.83;2.50;;;36.60;33.10;;;;;;4992140;28;21051;-66
2023/07/13 11:38:41;;;;;;;2.50;2.23;;;35.20;33.40;;;;;;4992090;28;20463;-66
2023/07/13 11:41:22;;;;;;;2.40;2.20;;;33.60;34.90;;;;;;4992285;28;20430;-67
2023/07/13 11:43:54;;;;;;;2.73;2.07;;;33.20;35.40;;;;;;4992324;28;20419;-66
2023/07/13 11:46:25;;;;;;;2.23;2.00;;;32.70;36.10;;;;;;4994109;28;20465;-66
2023/07/13 11:48:52;;;;;;;2.80;2.60;;;34.90;34.90;;;;;;4999474;28;20949;-66
2023/07/13 11:51:28;;;;;;;6.70;1.90;;;37.00;32.30;;;;;;4972773;28;20489;-66
2023/07/13 11:53:56;;;;;;;2.27;2.07;;;38.10;30.70;;;;;;4997072;28;20445;-66
2023/07/13 11:56:23;;;;;;;2.30;2.20;;;39.20;30.30;;;;;;5003576;28;20438;-66
2023/07/13 11:58:52;;;;;;;2.80;2.50;;;38.00;29.50;;;;;;5011473;28;20845;-66
2023/07/13 12:01:24;;;;;;;2.70;2.00;;;40.20;36.90;;;;;;5011916;28;20526;-66
2023/07/13 12:03:52;;;;;;;2.80;1.70;;;38.60;37.00;;;;;;5012018;28;20422;-66
2023/07/13 12:06:32;;;;;;;2.67;2.30;;;36.40;37.60;;;;;;5011815;28;20453;-66
2023/07/13 12:09:12;;;;;;;5.53;2.73;;;35.10;32.90;;;;;;5001188;28;20438;-66
2023/07/13 12:11:40;;;;;;;5.10;2.27;;;35.70;32.50;;;;;;4998691;28;20437;-66
2023/07/13 12:14:05;;;;;;;2.30;2.07;;;38.20;30.50;;;;;;5007327;28;20467;-66
2023/07/13 12:16:32;;;;;;;2.60;1.80;;;36.80;29.30;;;;;;5015462;28;20806;-66
2023/07/13 12:19:00;;;;;;;3.27;1.87;;;36.50;30.20;;;;;;5015528;28;20195;-65
2023/07/13 12:21:33;;;;;;;2.23;2.07;;;38.20;29.40;;;;;;5017012;28;20888;-66
2023/07/13 12:24:02;;;;;;;3.20;1.80;;;40.60;27.60;;;;;;5006188;28;20446;-66
2023/07/13 12:26:29;;;;;;;5.50;2.20;;;41.80;28.10;;;;;;5007309;28;20790;-66
2023/07/13 12:28:56;;;;;;;3.17;2.57;;;43.90;41.10;;;;;;5014868;28;20429;-66
2023/07/13 12:31:33;;;;;;;2.33;2.13;;;44.50;37.00;;;;;;5015073;28;20437;-66
2023/07/13 12:34:06;;;;;;;3.30;3.00;;;41.00;37.70;;;;;;5015002;28;20422;-66
2023/07/13 12:36:35;;;;;;;2.57;2.37;;;39.20;39.60;;;;;;5015050;28;20430;-66
2023/07/13 12:39:14;;;;;;;2.50;2.30;;;37.60;39.30;;;;;;4995032;28;20457;-66
2023/07/13 12:41:40;;;;;;;3.17;2.33;;;37.70;37.30;;;;;;5001349;28;20438;-66
2023/07/13 12:44:12;;;;;;;2.50;2.27;;;39.00;36.60;;;;;;5006907;28;20475;-66
2023/07/13 12:46:37;;;;;;;2.53;2.33;;;37.70;35.90;;;;;;5014997;28;20189;-66
2023/07/13 12:49:09;;;;;;;4.40;2.57;;;36.70;37.50;;;;;;5014780;28;20935;-66
2023/07/13 12:51:37;;;;;;;4.53;2.20;;;37.30;38.10;;;;;;5014857;28;20171;-66
2023/07/13 12:54:19;;;;;;;2.47;2.27;;;40.30;36.40;;;;;;4988923;28;20435;-66